LFPN 250900Z AUTO 22007KT 190V250 CAVOK 26/19 Q1016 NOSIG

ElémentsDécodage
LFPN Station météo située sur l'aérodrome de TOUSSUS-LE-NOBLE
250900Z émis le 25 du mois à 09h00 UTC
AUTO Bulletin édité par un automate
22007KT vent du 220°, 07 noeuds
190V250 vent de direction variable entre 190° et 250°
CAVOK Ceiling And Visibility OK
- Visibilité de 10 Km ou plus
- Pas de nuage au-dessous de 1500m ou au-dessous de l'altitude minimale du secteur la plus élevée (si>1500m) et absence de CB
- pas de temps présent significatif
26/19 température 26°C, point de rosée 19°C
 soit une humidité relative de 65%
Q1016 la pression au niveau de la mer (QNH) est de 1016 hPa
NOSIG Pas de changement significatif prévu au cours des deux heures suivant l'heure de l'observation